Time;durP1;ratioP1;P1;durP2;ratioP2;P2;SDS_P1;SDS_P2;PMS_P1;PMS_P2;Temp;Humidity;BMP_temperature;BMP_pressure;BME280_temperature;BME280_humidity;BME280_pressure;Samples;Min_cycle;Max_cycle;Signal;HPM_P1;HPM_P2
2023/02/20 00:00:51;;;;;;;4.32;0.60;;;;;;;;;;5071578;28;20062;-74
2023/02/20 00:03:21;;;;;;;4.95;0.90;;;;;;;;;;5089750;28;20055;-73
2023/02/20 00:05:51;;;;;;;5.95;0.82;;;;;;;;;;5090161;28;20048;-72
2023/02/20 00:08:22;;;;;;;8.73;0.88;;;;;;;;;;5089685;28;20036;-74
2023/02/20 00:10:53;;;;;;;5.00;0.88;;;;;;;;;;5089011;28;20475;-76
2023/02/20 00:13:24;;;;;;;4.65;0.70;;;;;;;;;;5089930;28;20044;-73
2023/02/20 00:15:55;;;;;;;5.57;0.98;;;;;;;;;;5090113;28;20048;-72
2023/02/20 00:18:26;;;;;;;8.05;1.10;;;;;;;;;;5090571;28;20056;-74
2023/02/20 00:20:57;;;;;;;7.07;1.15;;;;;;;;;;5097381;28;20047;-73
2023/02/20 00:23:32;;;;;;;5.55;0.80;;;;;;;;;;5098228;28;20040;-72
2023/02/20 00:26:02;;;;;;;4.75;0.90;;;;;;;;;;5098861;28;20044;-74
2023/02/20 00:28:33;;;;;;;3.75;0.80;;;;;;;;;;5097510;28;20567;-72
2023/02/20 00:31:03;;;;;;;7.97;1.40;;;;;;;;;;5086119;28;20601;-74
2023/02/20 00:33:35;;;;;;;10.68;1.13;;;;;;;;;;5109681;28;20047;-74
2023/02/20 00:36:06;;;;;;;5.32;0.65;;;;;;;;;;5108480;28;20047;-75
2023/02/20 00:38:36;;;;;;;7.60;1.17;;;;;;;;;;5109841;28;20051;-74
2023/02/20 00:41:10;;;;;;;4.63;1.58;;;;;;;;;;5110206;28;20376;-73
2023/02/20 00:43:41;;;;;;;7.88;1.02;;;;;;;;;;5109286;28;20040;-75
2023/02/20 00:46:13;;;;;;;8.65;1.17;;;;;;;;;;5090683;28;20059;-73
2023/02/20 00:48:44;;;;;;;6.40;1.05;;;;;;;;;;5109012;28;20052;-72
2023/02/20 00:51:32;;;;;;;7.75;1.10;;;;;;;;;;5112715;28;20059;-73
2023/02/20 00:54:03;;;;;;;4.38;0.80;;;;;;;;;;5109323;28;20092;-73
2023/02/20 00:56:34;;;;;;;7.47;0.93;;;;;;;;;;5091195;28;20048;-74
2023/02/20 00:59:05;;;;;;;6.28;0.95;;;;;;;;;;5090472;28;20055;-75
2023/02/20 01:01:35;;;;;;;6.15;1.00;;;;;;;;;;5090777;28;20047;-74
2023/02/20 01:04:05;;;;;;;3.83;1.00;;;;;;;;;;5108796;28;20490;-75
2023/02/20 01:06:37;;;;;;;7.70;0.95;;;;;;;;;;5110213;28;20415;-75
2023/02/20 01:09:07;;;;;;;6.15;1.33;;;;;;;;;;5108710;28;20052;-74
2023/02/20 01:11:37;;;;;;;6.47;0.93;;;;;;;;;;5090404;28;20066;-75
2023/02/20 01:14:08;;;;;;;8.73;1.15;;;;;;;;;;5073802;28;20052;-75
2023/02/20 01:16:45;;;;;;;9.27;1.00;;;;;;;;;;5085476;28;20059;-75
2023/02/20 01:19:16;;;;;;;7.45;1.00;;;;;;;;;;5090744;28;20423;-75
2023/02/20 01:21:50;;;;;;;5.28;0.80;;;;;;;;;;5088493;28;20048;-74
2023/02/20 01:24:20;;;;;;;7.78;1.00;;;;;;;;;;5088927;28;20067;-74
2023/02/20 01:26:51;;;;;;;4.90;1.08;;;;;;;;;;5088474;28;20509;-72
2023/02/20 01:29:23;;;;;;;7.07;1.20;;;;;;;;;;5088791;28;20044;-71
2023/02/20 01:31:53;;;;;;;7.47;0.88;;;;;;;;;;5088144;28;20047;-73
2023/02/20 01:34:23;;;;;;;4.97;0.85;;;;;;;;;;5087219;28;20368;-72
2023/02/20 01:36:56;;;;;;;6.93;1.10;;;;;;;;;;5068718;28;20048;-72
2023/02/20 01:39:30;;;;;;;5.75;0.77;;;;;;;;;;5068608;28;20056;-74
2023/02/20 01:42:05;;;;;;;5.88;0.85;;;;;;;;;;5088010;28;20063;-73
2023/02/20 01:44:38;;;;;;;4.18;0.93;;;;;;;;;;5087689;28;20043;-73
2023/02/20 01:47:13;;;;;;;3.35;0.90;;;;;;;;;;5052107;28;20159;-72
2023/02/20 01:49:47;;;;;;;;;;;;;;;;;;5088454;28;20056;-73
2023/02/20 01:52:24;;;;;;;6.25;1.20;;;;;;;;;;5088448;28;19923;-72
2023/02/20 01:55:35;;;;;;;5.20;0.88;;;;;;;;;;5069476;28;20056;-74
2023/02/20 01:58:30;;;;;;;5.10;0.82;;;;;;;;;;5050835;28;20054;-74
2023/02/20 02:01:03;;;;;;;4.75;1.02;;;;;;;;;;5087192;28;20047;-73
2023/02/20 02:03:36;;;;;;;3.08;0.90;;;;;;;;;;5087813;28;20051;-74
2023/02/20 02:06:09;;;;;;;9.30;1.00;;;;;;;;;;5087635;28;20047;-72
2023/02/20 02:08:43;;;;;;;3.83;0.80;;;;;;;;;;5069027;28;20056;-74
2023/02/20 02:11:24;;;;;;;5.38;0.90;;;;;;;;;;5068786;28;20059;-74
2023/02/20 02:13:56;;;;;;;6.93;1.20;;;;;;;;;;5087716;28;21045;-72
2023/02/20 02:16:38;;;;;;;8.35;0.80;;;;;;;;;;5068671;28;20052;-74
2023/02/20 02:19:20;;;;;;;5.18;1.20;;;;;;;;;;5087708;28;20055;-73
2023/02/20 02:22:24;;;;;;;8.65;1.48;;;;;;;;;;5088154;28;20047;-72
2023/02/20 02:25:38;;;;;;;1.23;0.45;;;;;;;;;;5087603;28;20055;-74
2023/02/20 02:28:38;;;;;;;5.70;0.70;;;;;;;;;;5050424;28;20415;-74
2023/02/20 02:31:28;;;;;;;6.72;1.13;;;;;;;;;;5086081;28;20044;-73
2023/02/20 02:34:26;;;;;;;7.68;1.20;;;;;;;;;;5086824;28;20070;-74
2023/02/20 02:37:03;;;;;;;8.52;0.88;;;;;;;;;;5068671;28;20048;-73
2023/02/20 02:39:41;;;;;;;8.10;1.02;;;;;;;;;;5086882;28;20047;-74
2023/02/20 02:42:22;;;;;;;5.40;0.93;;;;;;;;;;5068529;28;20051;-73
2023/02/20 02:45:01;;;;;;;8.35;0.80;;;;;;;;;;5087667;28;20094;-72
2023/02/20 02:47:34;;;;;;;7.15;1.02;;;;;;;;;;5069660;28;20414;-74
2023/02/20 02:50:11;;;;;;;5.78;0.80;;;;;;;;;;5087046;28;20048;-75
2023/02/20 02:52:47;;;;;;;4.78;0.85;;;;;;;;;;5051466;28;20063;-73
2023/02/20 02:55:22;;;;;;;15.88;1.10;;;;;;;;;;5086840;28;20073;-74
2023/02/20 02:57:54;;;;;;;3.83;0.80;;;;;;;;;;5068019;28;20055;-74
2023/02/20 03:00:59;;;;;;;5.68;0.80;;;;;;;;;;5086483;28;20048;-73
2023/02/20 03:03:42;;;;;;;6.20;0.80;;;;;;;;;;5087683;28;20051;-72
2023/02/20 03:06:22;;;;;;;2.53;0.60;;;;;;;;;;5087103;28;20040;-73
2023/02/20 03:09:10;;;;;;;4.47;1.70;;;;;;;;;;5087509;28;20055;-72
2023/02/20 03:11:41;;;;;;;6.30;1.02;;;;;;;;;;5086701;28;20036;-73
2023/02/20 03:17:36;;;;;;;6.80;0.93;;;;;;;;;;5068105;28;20059;-74
2023/02/20 03:20:10;;;;;;;8.38;0.85;;;;;;;;;;5068113;28;20059;-74
2023/02/20 03:22:57;;;;;;;6.45;0.82;;;;;;;;;;5086169;28;20499;-73
2023/02/20 03:25:45;;;;;;;6.57;1.23;;;;;;;;;;5086348;28;20056;-75
2023/02/20 03:28:25;;;;;;;3.15;0.60;;;;;;;;;;5086945;28;20419;-74
2023/02/20 03:31:16;;;;;;;1.90;0.52;;;;;;;;;;5086147;28;20388;-74
2023/02/20 03:45:38;;;;;;;12.82;1.20;;;;;;;;;;5086271;28;20415;-74
2023/02/20 03:48:23;;;;;;;4.63;0.80;;;;;;;;;;5067831;28;20048;-75
2023/02/20 03:53:58;;;;;;;2.53;0.80;;;;;;;;;;5068086;28;20063;-72
2023/02/20 03:56:43;;;;;;;3.30;0.98;;;;;;;;;;5068657;28;20614;-75
2023/02/20 03:59:20;;;;;;;4.63;0.93;;;;;;;;;;5068302;28;20515;-73
2023/02/20 04:01:56;;;;;;;9.23;1.30;;;;;;;;;;5086347;28;20051;-75
2023/02/20 04:04:37;;;;;;;8.75;1.33;;;;;;;;;;5068177;28;20051;-74
2023/02/20 04:07:12;;;;;;;8.27;1.10;;;;;;;;;;5067380;28;20511;-75
2023/02/20 04:09:46;;;;;;;3.55;1.20;;;;;;;;;;5067568;28;20055;-73
2023/02/20 04:12:26;;;;;;;4.78;0.85;;;;;;;;;;5071051;28;20063;-75
2023/02/20 04:14:59;;;;;;;5.07;1.10;;;;;;;;;;5071313;28;20048;-74
2023/02/20 04:17:51;;;;;;;4.10;0.90;;;;;;;;;;5089533;28;20051;-73
2023/02/20 04:20:22;;;;;;;4.28;1.10;;;;;;;;;;5059157;28;20051;-72
2023/02/20 04:23:18;;;;;;;7.90;1.13;;;;;;;;;;5070548;28;20044;-73
2023/02/20 04:26:20;;;;;;;6.25;1.10;;;;;;;;;;5071180;28;20060;-73
2023/02/20 04:28:53;;;;;;;4.28;1.17;;;;;;;;;;5064753;28;20063;-74
2023/02/20 04:31:25;;;;;;;6.10;0.98;;;;;;;;;;5071138;28;20052;-73
2023/02/20 04:33:58;;;;;;;4.35;1.10;;;;;;;;;;5070508;28;20075;-75
2023/02/20 04:36:29;;;;;;;5.85;1.30;;;;;;;;;;5070968;28;20060;-74
2023/02/20 04:39:02;;;;;;;5.25;1.15;;;;;;;;;;5070725;28;20055;-75
2023/02/20 04:41:34;;;;;;;3.95;1.45;;;;;;;;;;5070797;28;20055;-75
2023/02/20 04:46:57;;;;;;;5.78;0.90;;;;;;;;;;5071208;28;20044;-72
2023/02/20 04:49:28;;;;;;;4.22;1.05;;;;;;;;;;5070094;28;20071;-74
2023/02/20 04:52:00;;;;;;;4.30;1.40;;;;;;;;;;5070085;28;20521;-74
2023/02/20 04:54:32;;;;;;;6.93;1.15;;;;;;;;;;5070894;28;20051;-73
2023/02/20 04:57:03;;;;;;;6.57;1.30;;;;;;;;;;5070330;28;20495;-74
2023/02/20 04:59:34;;;;;;;4.22;1.00;;;;;;;;;;5071097;28;20055;-71
2023/02/20 05:02:05;;;;;;;2.72;1.02;;;;;;;;;;5070480;28;20150;-74
2023/02/20 05:04:38;;;;;;;6.03;1.02;;;;;;;;;;5088717;28;20048;-74
2023/02/20 05:07:08;;;;;;;6.65;1.20;;;;;;;;;;5087184;28;20056;-72
2023/02/20 05:09:42;;;;;;;7.43;1.40;;;;;;;;;;5089411;28;20048;-72
2023/02/20 05:12:14;;;;;;;3.33;1.13;;;;;;;;;;5088441;28;20056;-74
2023/02/20 05:14:46;;;;;;;3.78;1.50;;;;;;;;;;5088648;28;20048;-73
2023/02/20 05:17:16;;;;;;;4.68;1.25;;;;;;;;;;5088517;28;20055;-74
2023/02/20 05:19:47;;;;;;;10.27;2.10;;;;;;;;;;5053958;28;20056;-74
2023/02/20 05:22:18;;;;;;;6.43;1.23;;;;;;;;;;5088200;28;20047;-74
2023/02/20 05:24:52;;;;;;;7.18;1.30;;;;;;;;;;5070112;28;20047;-74
2023/02/20 05:27:24;;;;;;;3.95;1.30;;;;;;;;;;5088144;28;20494;-74
2023/02/20 05:29:57;;;;;;;3.78;1.30;;;;;;;;;;5089044;28;20398;-73
2023/02/20 05:32:29;;;;;;;2.13;0.98;;;;;;;;;;5088687;28;20052;-74
2023/02/20 05:35:00;;;;;;;3.45;1.40;;;;;;;;;;5089042;28;20039;-74
2023/02/20 05:37:30;;;;;;;5.68;1.20;;;;;;;;;;5087942;28;20126;-74
2023/02/20 05:40:02;;;;;;;4.80;1.35;;;;;;;;;;5087996;28;20495;-74
2023/02/20 05:42:33;;;;;;;7.35;1.40;;;;;;;;;;5088177;28;20044;-74
2023/02/20 05:45:08;;;;;;;7.47;1.40;;;;;;;;;;5087953;28;20048;-74
2023/02/20 05:47:38;;;;;;;5.40;1.08;;;;;;;;;;5087851;28;20495;-74
2023/02/20 05:50:08;;;;;;;5.65;1.20;;;;;;;;;;5088142;28;20511;-74
2023/02/20 05:52:39;;;;;;;5.50;1.13;;;;;;;;;;5087822;28;20414;-74
2023/02/20 05:55:11;;;;;;;4.18;1.20;;;;;;;;;;5087764;28;20063;-74
2023/02/20 05:57:42;;;;;;;7.60;1.50;;;;;;;;;;5087645;28;20388;-74
2023/02/20 06:00:12;;;;;;;6.22;1.40;;;;;;;;;;5068608;28;20059;-75
2023/02/20 06:02:43;;;;;;;5.88;1.30;;;;;;;;;;5087522;28;20048;-72
2023/02/20 06:05:14;;;;;;;4.45;1.15;;;;;;;;;;5087704;28;20052;-73
2023/02/20 06:07:45;;;;;;;5.55;1.25;;;;;;;;;;5087777;28;20051;-73
2023/02/20 06:10:18;;;;;;;5.25;1.30;;;;;;;;;;5087612;28;20051;-73
2023/02/20 06:12:49;;;;;;;6.70;1.20;;;;;;;;;;5069390;28;20082;-72
2023/02/20 06:15:19;;;;;;;4.65;1.25;;;;;;;;;;5087378;28;20523;-74
2023/02/20 06:17:49;;;;;;;3.13;1.42;;;;;;;;;;5087629;28;20055;-75
2023/02/20 06:20:19;;;;;;;3.55;0.98;;;;;;;;;;5087749;28;20040;-74
2023/02/20 06:22:50;;;;;;;6.07;1.00;;;;;;;;;;5087960;28;20047;-74
2023/02/20 06:25:25;;;;;;;3.25;0.98;;;;;;;;;;5087208;28;20055;-73
2023/02/20 06:27:55;;;;;;;4.43;1.00;;;;;;;;;;5087307;28;20036;-74
2023/02/20 06:30:25;;;;;;;4.50;1.08;;;;;;;;;;5086020;28;20514;-74
2023/02/20 06:32:55;;;;;;;3.17;1.00;;;;;;;;;;5052521;28;20063;-73
2023/02/20 06:35:27;;;;;;;7.97;1.13;;;;;;;;;;5086273;28;20058;-73
2023/02/20 06:37:57;;;;;;;3.40;0.90;;;;;;;;;;5068076;28;20048;-74
2023/02/20 06:40:27;;;;;;;5.95;1.00;;;;;;;;;;5087213;28;20723;-74
2023/02/20 06:42:57;;;;;;;3.40;1.02;;;;;;;;;;5087200;28;20074;-74
2023/02/20 06:45:27;;;;;;;6.63;1.02;;;;;;;;;;5086869;28;20553;-74
2023/02/20 06:47:57;;;;;;;5.43;1.05;;;;;;;;;;5087232;28;20041;-74
2023/02/20 06:50:28;;;;;;;6.18;1.00;;;;;;;;;;5087078;28;20044;-74
2023/02/20 06:52:59;;;;;;;6.82;1.50;;;;;;;;;;5086205;28;20052;-75
2023/02/20 06:55:28;;;;;;;5.72;1.10;;;;;;;;;;5086618;28;20058;-73
2023/02/20 06:57:59;;;;;;;5.25;0.95;;;;;;;;;;5086747;28;20047;-72
2023/02/20 07:00:29;;;;;;;3.47;0.90;;;;;;;;;;5087354;28;20048;-73
2023/02/20 07:03:01;;;;;;;3.83;0.93;;;;;;;;;;5086350;28;20515;-73
2023/02/20 07:05:32;;;;;;;5.00;1.00;;;;;;;;;;5067653;28;20052;-72
2023/02/20 07:08:01;;;;;;;4.55;1.23;;;;;;;;;;5068009;28;20422;-75
2023/02/20 07:10:31;;;;;;;4.72;1.10;;;;;;;;;;5087101;28;20040;-72
2023/02/20 07:13:04;;;;;;;3.63;1.00;;;;;;;;;;5068608;28;20059;-73
2023/02/20 07:15:36;;;;;;;5.90;1.02;;;;;;;;;;5086798;28;20415;-74
2023/02/20 07:18:06;;;;;;;4.18;1.00;;;;;;;;;;5068278;28;20361;-74
2023/02/20 07:20:36;;;;;;;8.77;1.50;;;;;;;;;;5086674;28;20498;-75
2023/02/20 07:23:06;;;;;;;4.68;1.00;;;;;;;;;;5086803;28;20051;-74
2023/02/20 07:25:37;;;;;;;4.65;1.13;;;;;;;;;;5069226;28;20048;-74
2023/02/20 07:28:08;;;;;;;2.28;0.80;;;;;;;;;;5067488;28;20048;-74
2023/02/20 07:30:38;;;;;;;3.97;1.00;;;;;;;;;;5086863;28;20051;-73
2023/02/20 07:33:08;;;;;;;4.05;0.90;;;;;;;;;;5086297;28;20051;-74
2023/02/20 07:35:38;;;;;;;5.03;1.35;;;;;;;;;;5068286;28;20079;-73
2023/02/20 07:38:09;;;;;;;7.35;1.40;;;;;;;;;;5067932;28;20060;-74
2023/02/20 07:40:41;;;;;;;5.72;1.13;;;;;;;;;;5086620;28;20032;-75
2023/02/20 07:43:12;;;;;;;6.20;1.40;;;;;;;;;;5086396;28;20063;-73
2023/02/20 07:45:42;;;;;;;4.68;1.25;;;;;;;;;;5068089;28;20048;-74
2023/02/20 07:48:13;;;;;;;3.75;0.98;;;;;;;;;;5090151;28;20043;-72
2023/02/20 07:50:44;;;;;;;5.57;1.10;;;;;;;;;;5072182;28;20052;-75
2023/02/20 07:53:18;;;;;;;4.28;1.13;;;;;;;;;;5090435;28;20052;-74
2023/02/20 07:55:49;;;;;;;2.70;1.10;;;;;;;;;;5090515;28;20048;-73
2023/02/20 07:58:19;;;;;;;5.78;1.05;;;;;;;;;;5090184;28;20043;-76
2023/02/20 08:00:52;;;;;;;7.38;1.45;;;;;;;;;;5090074;28;20044;-73
2023/02/20 08:03:23;;;;;;;5.70;1.33;;;;;;;;;;5090481;28;20059;-74
2023/02/20 08:05:54;;;;;;;5.93;1.00;;;;;;;;;;5090050;28;20044;-73
2023/02/20 08:08:25;;;;;;;4.10;1.13;;;;;;;;;;5090087;28;20055;-75
2023/02/20 08:10:57;;;;;;;6.38;1.50;;;;;;;;;;5089863;28;20096;-74
2023/02/20 08:13:38;;;;;;;3.00;1.20;;;;;;;;;;5088642;28;20059;-75
2023/02/20 08:16:08;;;;;;;2.22;1.30;;;;;;;;;;5071057;28;20052;-72
2023/02/20 08:18:39;;;;;;;4.13;1.33;;;;;;;;;;5090142;28;20040;-73
2023/02/20 08:21:09;;;;;;;5.00;1.60;;;;;;;;;;5089808;28;20059;-74
2023/02/20 08:23:39;;;;;;;5.97;1.35;;;;;;;;;;5090348;28;20044;-74
2023/02/20 08:26:11;;;;;;;6.57;1.52;;;;;;;;;;5072506;28;20067;-72
2023/02/20 08:28:42;;;;;;;3.40;1.20;;;;;;;;;;5089621;28;20825;-73
2023/02/20 08:31:13;;;;;;;7.03;1.25;;;;;;;;;;5072082;28;20043;-73
2023/02/20 08:34:00;;;;;;;4.07;1.42;;;;;;;;;;5089412;28;20414;-73
2023/02/20 08:36:30;;;;;;;9.75;1.45;;;;;;;;;;5089191;28;20529;-74
2023/02/20 08:39:02;;;;;;;3.20;1.10;;;;;;;;;;5088959;28;20040;-74
2023/02/20 08:41:33;;;;;;;12.73;1.55;;;;;;;;;;5070717;28;20055;-73
2023/02/20 08:44:04;;;;;;;4.50;1.40;;;;;;;;;;5089364;28;20048;-73
2023/02/20 08:46:34;;;;;;;5.43;1.52;;;;;;;;;;5089819;28;20052;-73
2023/02/20 08:49:05;;;;;;;2.17;1.00;;;;;;;;;;5090136;28;20079;-72
2023/02/20 08:51:35;;;;;;;3.47;1.10;;;;;;;;;;5088951;28;20051;-72
2023/02/20 08:54:05;;;;;;;8.88;1.27;;;;;;;;;;5089251;28;20055;-73
2023/02/20 08:56:35;;;;;;;3.40;1.42;;;;;;;;;;5089134;28;20058;-73
2023/02/20 08:59:05;;;;;;;5.53;1.13;;;;;;;;;;5088113;28;20052;-73
2023/02/20 09:01:36;;;;;;;4.20;1.20;;;;;;;;;;5088707;28;20070;-72
2023/02/20 09:04:07;;;;;;;10.00;1.30;;;;;;;;;;5089094;28;20048;-73
2023/02/20 09:06:37;;;;;;;5.50;1.10;;;;;;;;;;5089016;28;20048;-74
2023/02/20 09:09:07;;;;;;;2.80;1.20;;;;;;;;;;5089207;28;20048;-74
2023/02/20 09:11:38;;;;;;;3.80;1.08;;;;;;;;;;5089067;28;20044;-73
2023/02/20 09:14:10;;;;;;;5.60;1.83;;;;;;;;;;5088307;28;20502;-74
2023/02/20 09:16:41;;;;;;;3.88;1.17;;;;;;;;;;5088746;28;20058;-72
2023/02/20 09:19:12;;;;;;;8.45;1.40;;;;;;;;;;5088561;28;20048;-72
2023/02/20 09:21:45;;;;;;;5.35;1.60;;;;;;;;;;5088370;28;20036;-73
2023/02/20 09:24:17;;;;;;;10.40;1.35;;;;;;;;;;5088361;28;20102;-74
2023/02/20 09:26:47;;;;;;;6.78;1.55;;;;;;;;;;5088916;28;20484;-74
2023/02/20 09:29:17;;;;;;;2.97;1.00;;;;;;;;;;5087813;28;20406;-73
2023/02/20 09:31:47;;;;;;;3.20;1.10;;;;;;;;;;5088500;28;20059;-73
2023/02/20 09:34:19;;;;;;;4.78;1.20;;;;;;;;;;5088483;28;20051;-73
2023/02/20 09:36:50;;;;;;;5.35;1.35;;;;;;;;;;5088689;28;20051;-74
2023/02/20 09:39:23;;;;;;;5.95;1.10;;;;;;;;;;5069634;28;20048;-73
2023/02/20 09:42:03;;;;;;;4.53;1.58;;;;;;;;;;5088218;28;20048;-72
2023/02/20 09:44:40;;;;;;;10.48;1.52;;;;;;;;;;5069779;28;20071;-72
2023/02/20 09:47:26;;;;;;;7.35;1.50;;;;;;;;;;5070213;28;20046;-72
2023/02/20 09:50:02;;;;;;;3.90;1.15;;;;;;;;;;5087508;28;20067;-74
2023/02/20 09:52:39;;;;;;;9.95;1.40;;;;;;;;;;5097858;28;20526;-71
2023/02/20 09:55:19;;;;;;;4.55;1.15;;;;;;;;;;5089106;28;20047;-70
2023/02/20 09:57:55;;;;;;;6.03;1.25;;;;;;;;;;5108276;28;20044;-71
2023/02/20 10:00:33;;;;;;;5.47;1.10;;;;;;;;;;5108393;28;20043;-71
2023/02/20 10:03:19;;;;;;;5.38;1.40;;;;;;;;;;5108686;28;20051;-70
2023/02/20 10:05:50;;;;;;;6.38;1.52;;;;;;;;;;5108306;28;20036;-72
2023/02/20 10:08:22;;;;;;;5.25;1.52;;;;;;;;;;5107519;28;20039;-71
2023/02/20 10:10:57;;;;;;;4.18;1.50;;;;;;;;;;5089370;28;20051;-71
2023/02/20 10:13:55;;;;;;;5.57;1.50;;;;;;;;;;5107669;28;20052;-72
2023/02/20 10:16:33;;;;;;;5.80;1.85;;;;;;;;;;5107662;28;20529;-72
2023/02/20 10:19:27;;;;;;;6.90;1.50;;;;;;;;;;5108031;28;20040;-73
2023/02/20 10:22:12;;;;;;;6.72;1.48;;;;;;;;;;5107758;28;20051;-72
2023/02/20 10:25:09;;;;;;;7.20;1.70;;;;;;;;;;5108302;28;20520;-71
2023/02/20 10:28:05;;;;;;;3.13;1.63;;;;;;;;;;5107308;28;20047;-73
2023/02/20 10:30:45;;;;;;;7.80;1.45;;;;;;;;;;5107471;28;20402;-71
2023/02/20 10:33:40;;;;;;;8.13;1.70;;;;;;;;;;5107682;28;20050;-72
2023/02/20 10:36:18;;;;;;;12.50;1.75;;;;;;;;;;5107635;28;20521;-72
2023/02/20 10:38:55;;;;;;;8.13;1.52;;;;;;;;;;5107240;28;20406;-73
2023/02/20 10:41:46;;;;;;;5.88;1.35;;;;;;;;;;5107154;28;20415;-72
2023/02/20 10:44:27;;;;;;;6.93;1.38;;;;;;;;;;5107195;28;20494;-72
2023/02/20 10:47:16;;;;;;;3.10;1.30;;;;;;;;;;5090159;28;20043;-73
2023/02/20 10:49:58;;;;;;;10.63;1.27;;;;;;;;;;5107660;28;20411;-73
2023/02/20 10:52:46;;;;;;;6.97;1.23;;;;;;;;;;5107121;28;20051;-73
2023/02/20 10:55:35;;;;;;;16.58;1.50;;;;;;;;;;5106990;28;20059;-73
2023/02/20 10:58:28;;;;;;;8.88;1.58;;;;;;;;;;5106932;28;20406;-71
2023/02/20 11:01:08;;;;;;;13.68;1.75;;;;;;;;;;5107602;28;20071;-71
2023/02/20 11:03:47;;;;;;;8.90;1.60;;;;;;;;;;5107488;28;20510;-74
2023/02/20 11:06:21;;;;;;;7.82;1.52;;;;;;;;;;5107165;28;20410;-73
2023/02/20 11:08:52;;;;;;;15.93;2.80;;;;;;;;;;5106970;28;20052;-73
2023/02/20 11:11:28;;;;;;;6.22;1.48;;;;;;;;;;5107030;28;20048;-73
2023/02/20 11:14:10;;;;;;;11.90;1.60;;;;;;;;;;5089789;28;20054;-72
2023/02/20 11:17:14;;;;;;;7.03;1.50;;;;;;;;;;5086613;28;20422;-74
2023/02/20 11:19:47;;;;;;;7.10;1.58;;;;;;;;;;5082626;28;20059;-73
2023/02/20 11:22:55;;;;;;;10.75;1.77;;;;;;;;;;5090003;28;20051;-73
2023/02/20 11:25:27;;;;;;;14.15;2.65;;;;;;;;;;5090753;28;20052;-73
2023/02/20 11:28:17;;;;;;;8.57;2.55;;;;;;;;;;5090149;28;20044;-73
2023/02/20 11:31:02;;;;;;;5.63;1.70;;;;;;;;;;5073362;28;20055;-73
2023/02/20 11:33:36;;;;;;;5.63;1.30;;;;;;;;;;5090383;28;20043;-73
2023/02/20 11:36:37;;;;;;;7.50;1.67;;;;;;;;;;5091377;28;20048;-73
2023/02/20 11:39:19;;;;;;;7.75;1.80;;;;;;;;;;5073587;28;20048;-73
2023/02/20 11:42:32;;;;;;;7.40;2.30;;;;;;;;;;5090597;28;20048;-74
2023/02/20 11:45:16;;;;;;;5.85;1.67;;;;;;;;;;5008043;28;20061;-74
2023/02/20 11:48:05;;;;;;;4.28;1.20;;;;;;;;;;5073078;28;20085;-75
2023/02/20 11:50:42;;;;;;;17.85;2.90;;;;;;;;;;5090592;28;20040;-73
2023/02/20 11:53:18;;;;;;;12.65;1.60;;;;;;;;;;5090505;28;20403;-72
2023/02/20 11:56:08;;;;;;;8.82;1.92;;;;;;;;;;5090283;28;20051;-73
2023/02/20 11:58:40;;;;;;;4.00;1.20;;;;;;;;;;5091158;28;20044;-74
2023/02/20 12:01:33;;;;;;;12.10;2.05;;;;;;;;;;5090129;28;20044;-73
2023/02/20 12:04:19;;;;;;;6.47;1.33;;;;;;;;;;5090386;28;20048;-75
2023/02/20 12:06:50;;;;;;;2.50;0.93;;;;;;;;;;5090284;28;20040;-73
2023/02/20 12:09:25;;;;;;;5.20;1.60;;;;;;;;;;5090189;28;20415;-74
2023/02/20 12:11:56;;;;;;;3.25;1.20;;;;;;;;;;5089877;28;20048;-76
2023/02/20 12:14:26;;;;;;;8.77;1.60;;;;;;;;;;5089661;28;20055;-74
2023/02/20 12:17:26;;;;;;;10.98;2.05;;;;;;;;;;5089528;28;20048;-74
2023/02/20 12:20:18;;;;;;;7.18;1.80;;;;;;;;;;5089548;28;20055;-74
2023/02/20 12:23:04;;;;;;;3.80;1.35;;;;;;;;;;5089553;28;20044;-71
2023/02/20 12:25:58;;;;;;;6.72;1.70;;;;;;;;;;5090016;28;20051;-75
2023/02/20 12:28:44;;;;;;;7.78;1.40;;;;;;;;;;5089606;28;20051;-73
2023/02/20 12:31:54;;;;;;;16.27;3.10;;;;;;;;;;5089839;28;20040;-72
2023/02/20 12:34:43;;;;;;;4.80;1.35;;;;;;;;;;5089487;28;20055;-74
2023/02/20 12:37:32;;;;;;;21.17;2.75;;;;;;;;;;5089375;28;20491;-76
2023/02/20 12:40:23;;;;;;;8.63;1.25;;;;;;;;;;5089499;28;20048;-72
2023/02/20 12:42:58;;;;;;;9.52;1.58;;;;;;;;;;5088653;28;20040;-75
2023/02/20 12:45:34;;;;;;;4.85;1.40;;;;;;;;;;5089149;28;20126;-74
2023/02/20 12:48:12;;;;;;;7.22;1.25;;;;;;;;;;5088431;28;20052;-73
2023/02/20 12:51:09;;;;;;;6.03;1.60;;;;;;;;;;5090308;28;20044;-73
2023/02/20 12:54:03;;;;;;;8.15;1.50;;;;;;;;;;5089238;28;20051;-73
2023/02/20 12:56:58;;;;;;;5.63;1.17;;;;;;;;;;5088500;28;20052;-74
2023/02/20 12:59:44;;;;;;;8.68;1.42;;;;;;;;;;5088439;28;20048;-74
2023/02/20 13:02:42;;;;;;;6.97;1.42;;;;;;;;;;5088323;28;20059;-73
2023/02/20 13:05:20;;;;;;;12.15;1.50;;;;;;;;;;5089164;28;20403;-73
2023/02/20 13:07:52;;;;;;;3.45;1.05;;;;;;;;;;5088390;28;20044;-73
2023/02/20 13:10:47;;;;;;;6.07;1.23;;;;;;;;;;5088719;28;20414;-73
2023/02/20 13:13:19;;;;;;;9.60;1.88;;;;;;;;;;5088978;28;20767;-73
2023/02/20 13:15:57;;;;;;;2.95;1.17;;;;;;;;;;5089187;28;20044;-73
2023/02/20 13:18:39;;;;;;;8.45;1.35;;;;;;;;;;5088345;28;20055;-73
2023/02/20 13:21:14;;;;;;;4.88;1.45;;;;;;;;;;5089006;28;20048;-73
2023/02/20 13:23:48;;;;;;;9.75;1.90;;;;;;;;;;5088528;28;20798;-73
2023/02/20 13:26:34;;;;;;;8.35;1.30;;;;;;;;;;5088425;28;20050;-73
2023/02/20 13:29:17;;;;;;;5.35;1.27;;;;;;;;;;5088393;28;20048;-73
2023/02/20 13:31:56;;;;;;;9.68;1.33;;;;;;;;;;5087010;28;20533;-73
2023/02/20 13:34:30;;;;;;;5.82;1.15;;;;;;;;;;5088632;28;20051;-73
2023/02/20 13:37:00;;;;;;;7.60;1.88;;;;;;;;;;5088179;28;20051;-74
2023/02/20 13:39:39;;;;;;;14.88;1.80;;;;;;;;;;5088177;28;20062;-73
2023/02/20 13:42:33;;;;;;;10.45;1.40;;;;;;;;;;5088570;28;20046;-73
2023/02/20 13:45:40;;;;;;;6.40;1.30;;;;;;;;;;5087579;28;20048;-73
2023/02/20 13:48:18;;;;;;;10.75;1.40;;;;;;;;;;5087815;28;20415;-73
2023/02/20 13:50:48;;;;;;;7.93;1.20;;;;;;;;;;5088268;28;20074;-72
2023/02/20 13:53:18;;;;;;;10.00;1.35;;;;;;;;;;5087934;28;20048;-73
2023/02/20 13:55:50;;;;;;;2.72;1.10;;;;;;;;;;5087786;28;20052;-73
2023/02/20 13:58:21;;;;;;;7.35;1.20;;;;;;;;;;5087524;28;20051;-73
2023/02/20 14:00:55;;;;;;;7.15;1.02;;;;;;;;;;5088541;28;20048;-72
2023/02/20 14:03:30;;;;;;;9.00;1.10;;;;;;;;;;5087683;28;20043;-73
2023/02/20 14:06:17;;;;;;;9.80;1.85;;;;;;;;;;5087219;28;20392;-72
2023/02/20 14:08:48;;;;;;;6.90;0.93;;;;;;;;;;5087745;28;20040;-74
2023/02/20 14:11:51;;;;;;;7.13;1.20;;;;;;;;;;5087422;28;20047;-73
2023/02/20 14:14:42;;;;;;;11.18;1.60;;;;;;;;;;5073839;28;20067;-73
2023/02/20 14:17:19;;;;;;;4.97;0.90;;;;;;;;;;5069074;28;20056;-73
2023/02/20 14:19:56;;;;;;;4.50;1.13;;;;;;;;;;5087742;28;20044;-72
2023/02/20 14:22:40;;;;;;;4.95;1.33;;;;;;;;;;5087289;28;20499;-72
2023/02/20 14:25:28;;;;;;;5.38;1.15;;;;;;;;;;5087597;28;20040;-72
2023/02/20 14:28:25;;;;;;;4.53;1.30;;;;;;;;;;5087134;28;20738;-72
2023/02/20 14:31:22;;;;;;;4.05;1.58;;;;;;;;;;5085098;28;20499;-71
2023/02/20 14:33:57;;;;;;;7.85;2.40;;;;;;;;;;5086839;28;20051;-74
2023/02/20 14:36:34;;;;;;;7.85;3.35;;;;;;;;;;5087168;28;20099;-73
2023/02/20 14:39:26;;;;;;;8.43;2.92;;;;;;;;;;5087237;28;20407;-73
2023/02/20 14:41:59;;;;;;;5.38;1.85;;;;;;;;;;5087275;28;20055;-77
2023/02/20 14:44:31;;;;;;;9.18;1.98;;;;;;;;;;5087173;28;20044;-74
2023/02/20 14:47:15;;;;;;;7.53;1.65;;;;;;;;;;5087741;28;20522;-76
2023/02/20 14:49:48;;;;;;;5.40;1.55;;;;;;;;;;5087060;28;20482;-74
2023/02/20 14:52:23;;;;;;;5.72;1.92;;;;;;;;;;5085562;28;20052;-74
2023/02/20 14:55:02;;;;;;;4.70;1.50;;;;;;;;;;5086375;28;20055;-74
2023/02/20 14:57:33;;;;;;;6.10;1.75;;;;;;;;;;5086594;28;20052;-73
2023/02/20 15:00:24;;;;;;;9.85;2.00;;;;;;;;;;5087122;28;20052;-73
2023/02/20 15:02:55;;;;;;;5.13;1.83;;;;;;;;;;5086909;28;20047;-74
2023/02/20 15:05:38;;;;;;;4.00;1.50;;;;;;;;;;5086591;28;20050;-74
2023/02/20 15:08:17;;;;;;;7.30;1.75;;;;;;;;;;5095711;28;20384;-74
2023/02/20 15:10:53;;;;;;;4.95;2.00;;;;;;;;;;5107234;28;20407;-73
2023/02/20 15:13:31;;;;;;;4.20;1.95;;;;;;;;;;5106784;28;20047;-74
2023/02/20 15:16:28;;;;;;;8.55;3.30;;;;;;;;;;5088702;28;20047;-74
2023/02/20 15:18:59;;;;;;;5.10;1.83;;;;;;;;;;5105965;28;20064;-74
2023/02/20 15:21:40;;;;;;;3.92;1.83;;;;;;;;;;5106574;28;20051;-75
2023/02/20 15:24:34;;;;;;;5.45;1.77;;;;;;;;;;5107182;28;20406;-74
2023/02/20 15:27:16;;;;;;;;;;;;;;;;;;5107535;28;20525;-74
2023/02/20 15:29:47;;;;;;;5.70;2.33;;;;;;;;;;5106700;28;19924;-73
2023/02/20 15:32:24;;;;;;;12.43;2.92;;;;;;;;;;5100569;28;20037;-74
2023/02/20 15:34:57;;;;;;;9.73;2.83;;;;;;;;;;5090880;28;20056;-74
2023/02/20 15:37:32;;;;;;;16.38;4.63;;;;;;;;;;5086418;28;20418;-74
2023/02/20 15:40:28;;;;;;;15.75;4.93;;;;;;;;;;5086345;28;20067;-75
2023/02/20 15:42:59;;;;;;;15.05;6.45;;;;;;;;;;5068602;28;20062;-75
2023/02/20 15:45:41;;;;;;;17.38;6.80;;;;;;;;;;5067912;28;20059;-77
2023/02/20 15:48:10;;;;;;;10.80;5.68;;;;;;;;;;5086138;28;20055;-75
2023/02/20 15:50:41;;;;;;;14.85;5.78;;;;;;;;;;5086397;28;20044;-75
2023/02/20 15:53:22;;;;;;;14.05;5.20;;;;;;;;;;5086371;28;20044;-74
2023/02/20 15:55:54;;;;;;;17.42;5.10;;;;;;;;;;5085234;28;20051;-75
2023/02/20 15:58:44;;;;;;;14.57;5.97;;;;;;;;;;5085915;28;20052;-74
2023/02/20 16:01:16;;;;;;;10.82;3.90;;;;;;;;;;5086012;28;20036;-74
2023/02/20 16:03:46;;;;;;;11.25;4.03;;;;;;;;;;5086374;28;20044;-76